sensor_id;sensor_type;location;lat;lon;timestamp;P1;durP1;ratioP1;P2;durP2;ratioP2
71814;SDS011;59659;41.520;23.794;2022-12-29T04:42:38;9.32;;;4.68;;
71814;SDS011;59659;41.520;23.794;2022-12-29T04:43:49;8.57;;;5.35;;
71814;SDS011;59659;41.520;23.794;2022-12-29T04:45:01;15.02;;;6.55;;
71814;SDS011;59659;41.520;23.794;2022-12-29T04:46:12;8.98;;;4.85;;
71814;SDS011;59659;41.520;23.794;2022-12-29T04:47:24;6.50;;;4.13;;
71814;SDS011;59659;41.520;23.794;2022-12-29T04:48:36;7.60;;;4.72;;
71814;SDS011;59659;41.520;23.794;2022-12-29T04:49:47;9.50;;;4.38;;
71814;SDS011;59659;41.520;23.794;2022-12-29T04:50:59;6.45;;;4.22;;
71814;SDS011;59659;41.520;23.794;2022-12-29T04:52:10;8.20;;;4.72;;
71814;SDS011;59659;41.520;23.794;2022-12-29T04:53:22;9.00;;;4.50;;
71814;SDS011;59659;41.520;23.794;2022-12-29T04:54:33;10.43;;;5.47;;
71814;SDS011;59659;41.520;23.794;2022-12-29T04:55:48;7.68;;;4.80;;
71814;SDS011;59659;41.520;23.794;2022-12-29T04:57:00;9.52;;;4.50;;
71814;SDS011;59659;41.520;23.794;2022-12-29T04:58:11;7.60;;;4.13;;
71814;SDS011;59659;41.520;23.794;2022-12-29T04:59:30;7.78;;;4.10;;
71814;SDS011;59659;41.520;23.794;2022-12-29T05:00:42;7.25;;;3.78;;
71814;SDS011;59659;41.520;23.794;2022-12-29T05:01:53;9.35;;;5.28;;
71814;SDS011;59659;41.520;23.794;2022-12-29T05:03:05;10.82;;;4.78;;
71814;SDS011;59659;41.520;23.794;2022-12-29T05:04:17;9.55;;;4.38;;
71814;SDS011;59659;41.520;23.794;2022-12-29T05:05:28;10.23;;;4.43;;
71814;SDS011;59659;41.520;23.794;2022-12-29T05:06:40;9.00;;;4.13;;
71814;SDS011;59659;41.520;23.794;2022-12-29T05:07:51;6.45;;;4.18;;
71814;SDS011;59659;41.520;23.794;2022-12-29T05:09:03;8.23;;;4.50;;
71814;SDS011;59659;41.520;23.794;2022-12-29T05:10:14;7.20;;;3.95;;
71814;SDS011;59659;41.520;23.794;2022-12-29T05:11:26;6.55;;;3.92;;
71814;SDS011;59659;41.520;23.794;2022-12-29T05:12:38;12.05;;;4.63;;
71814;SDS011;59659;41.520;23.794;2022-12-29T05:13:49;8.32;;;5.10;;
71814;SDS011;59659;41.520;23.794;2022-12-29T05:15:01;11.88;;;7.30;;
71814;SDS011;59659;41.520;23.794;2022-12-29T05:16:14;8.57;;;4.68;;
71814;SDS011;59659;41.520;23.794;2022-12-29T05:17:25;8.52;;;5.45;;
71814;SDS011;59659;41.520;23.794;2022-12-29T05:18:37;9.70;;;5.90;;
71814;SDS011;59659;41.520;23.794;2022-12-29T05:19:49;13.73;;;5.80;;
71814;SDS011;59659;41.520;23.794;2022-12-29T05:21:00;7.60;;;4.82;;
71814;SDS011;59659;41.520;23.794;2022-12-29T05:22:12;7.97;;;5.22;;
71814;SDS011;59659;41.520;23.794;2022-12-29T05:23:24;16.02;;;5.82;;
71814;SDS011;59659;41.520;23.794;2022-12-29T05:24:36;13.30;;;5.97;;
71814;SDS011;59659;41.520;23.794;2022-12-29T05:25:47;17.80;;;7.60;;
71814;SDS011;59659;41.520;23.794;2022-12-29T05:26:59;13.52;;;8.55;;
71814;SDS011;59659;41.520;23.794;2022-12-29T05:28:10;13.90;;;7.70;;
71814;SDS011;59659;41.520;23.794;2022-12-29T05:29:22;15.50;;;8.38;;
71814;SDS011;59659;41.520;23.794;2022-12-29T05:30:33;14.77;;;8.93;;
71814;SDS011;59659;41.520;23.794;2022-12-29T05:31:45;14.10;;;8.27;;
71814;SDS011;59659;41.520;23.794;2022-12-29T05:32:56;17.15;;;9.18;;
71814;SDS011;59659;41.520;23.794;2022-12-29T05:34:10;14.43;;;6.97;;
71814;SDS011;59659;41.520;23.794;2022-12-29T05:35:22;15.88;;;8.65;;
71814;SDS011;59659;41.520;23.794;2022-12-29T05:36:33;22.05;;;11.25;;
71814;SDS011;59659;41.520;23.794;2022-12-29T05:37:48;21.23;;;10.45;;
71814;SDS011;59659;41.520;23.794;2022-12-29T05:38:59;16.35;;;9.90;;
71814;SDS011;59659;41.520;23.794;2022-12-29T05:40:11;21.00;;;12.27;;
71814;SDS011;59659;41.520;23.794;2022-12-29T05:41:22;27.48;;;14.13;;
71814;SDS011;59659;41.520;23.794;2022-12-29T05:42:34;27.10;;;13.43;;
71814;SDS011;59659;41.520;23.794;2022-12-29T05:43:46;32.78;;;16.40;;
71814;SDS011;59659;41.520;23.794;2022-12-29T05:44:57;31.02;;;16.13;;
71814;SDS011;59659;41.520;23.794;2022-12-29T05:46:09;25.63;;;13.80;;
71814;SDS011;59659;41.520;23.794;2022-12-29T05:47:21;25.25;;;13.38;;
71814;SDS011;59659;41.520;23.794;2022-12-29T05:48:32;22.17;;;12.07;;
71814;SDS011;59659;41.520;23.794;2022-12-29T05:49:48;21.52;;;11.38;;
71814;SDS011;59659;41.520;23.794;2022-12-29T05:50:59;26.52;;;13.85;;
71814;SDS011;59659;41.520;23.794;2022-12-29T05:52:11;33.95;;;16.85;;
71814;SDS011;59659;41.520;23.794;2022-12-29T05:53:22;40.47;;;18.75;;
71814;SDS011;59659;41.520;23.794;2022-12-29T05:54:34;39.70;;;20.15;;
71814;SDS011;59659;41.520;23.794;2022-12-29T05:55:46;39.28;;;21.40;;
71814;SDS011;59659;41.520;23.794;2022-12-29T05:56:59;36.53;;;21.42;;
71814;SDS011;59659;41.520;23.794;2022-12-29T05:58:10;32.75;;;17.67;;
71814;SDS011;59659;41.520;23.794;2022-12-29T05:59:22;36.03;;;20.60;;
71814;SDS011;59659;41.520;23.794;2022-12-29T06:00:34;40.72;;;21.25;;
71814;SDS011;59659;41.520;23.794;2022-12-29T06:01:45;40.30;;;20.70;;
71814;SDS011;59659;41.520;23.794;2022-12-29T06:02:57;38.08;;;19.60;;
71814;SDS011;59659;41.520;23.794;2022-12-29T06:04:09;40.25;;;21.20;;
71814;SDS011;59659;41.520;23.794;2022-12-29T06:05:20;42.28;;;20.38;;
71814;SDS011;59659;41.520;23.794;2022-12-29T06:06:32;54.80;;;22.50;;
71814;SDS011;59659;41.520;23.794;2022-12-29T06:07:43;44.70;;;23.15;;
71814;SDS011;59659;41.520;23.794;2022-12-29T06:08:56;55.65;;;25.58;;
71814;SDS011;59659;41.520;23.794;2022-12-29T06:10:08;37.20;;;20.52;;
71814;SDS011;59659;41.520;23.794;2022-12-29T06:11:19;40.50;;;20.05;;
71814;SDS011;59659;41.520;23.794;2022-12-29T06:12:30;51.15;;;23.30;;
71814;SDS011;59659;41.520;23.794;2022-12-29T06:13:42;40.70;;;19.02;;
71814;SDS011;59659;41.520;23.794;2022-12-29T06:14:54;43.90;;;23.50;;
71814;SDS011;59659;41.520;23.794;2022-12-29T06:16:05;44.90;;;22.20;;
71814;SDS011;59659;41.520;23.794;2022-12-29T06:17:17;57.15;;;23.42;;
71814;SDS011;59659;41.520;23.794;2022-12-29T06:18:28;49.58;;;22.90;;
71814;SDS011;59659;41.520;23.794;2022-12-29T06:19:40;49.65;;;26.05;;
71814;SDS011;59659;41.520;23.794;2022-12-29T06:20:51;73.38;;;33.92;;
71814;SDS011;59659;41.520;23.794;2022-12-29T06:22:03;57.95;;;27.77;;
71814;SDS011;59659;41.520;23.794;2022-12-29T06:23:15;69.15;;;30.70;;
71814;SDS011;59659;41.520;23.794;2022-12-29T06:24:27;77.32;;;34.00;;
71814;SDS011;59659;41.520;23.794;2022-12-29T06:25:39;82.88;;;35.58;;
71814;SDS011;59659;41.520;23.794;2022-12-29T06:26:50;71.63;;;32.30;;
71814;SDS011;59659;41.520;23.794;2022-12-29T06:28:02;62.75;;;32.13;;
71814;SDS011;59659;41.520;23.794;2022-12-29T06:29:13;66.03;;;29.23;;
71814;SDS011;59659;41.520;23.794;2022-12-29T06:30:28;60.15;;;29.70;;
71814;SDS011;59659;41.520;23.794;2022-12-29T06:31:39;61.80;;;26.35;;
71814;SDS011;59659;41.520;23.794;2022-12-29T06:32:51;57.60;;;30.40;;
71814;SDS011;59659;41.520;23.794;2022-12-29T06:34:02;52.47;;;30.02;;
71814;SDS011;59659;41.520;23.794;2022-12-29T06:35:18;68.57;;;34.88;;
71814;SDS011;59659;41.520;23.794;2022-12-29T06:36:30;66.22;;;37.38;;
71814;SDS011;59659;41.520;23.794;2022-12-29T06:37:41;86.57;;;41.10;;
71814;SDS011;59659;41.520;23.794;2022-12-29T06:38:54;95.47;;;42.95;;
71814;SDS011;59659;41.520;23.794;2022-12-29T06:40:06;88.38;;;41.60;;
71814;SDS011;59659;41.520;23.794;2022-12-29T06:41:18;85.35;;;43.17;;
71814;SDS011;59659;41.520;23.794;2022-12-29T06:42:30;100.53;;;48.30;;
71814;SDS011;59659;41.520;23.794;2022-12-29T06:43:42;117.00;;;49.58;;
71814;SDS011;59659;41.520;23.794;2022-12-29T06:44:54;97.55;;;45.50;;
71814;SDS011;59659;41.520;23.794;2022-12-29T06:46:05;71.95;;;35.78;;
71814;SDS011;59659;41.520;23.794;2022-12-29T06:47:17;70.57;;;34.08;;
71814;SDS011;59659;41.520;23.794;2022-12-29T06:48:29;70.63;;;29.25;;
71814;SDS011;59659;41.520;23.794;2022-12-29T06:49:41;65.57;;;30.17;;
71814;SDS011;59659;41.520;23.794;2022-12-29T06:50:52;73.28;;;30.10;;
71814;SDS011;59659;41.520;23.794;2022-12-29T06:52:04;71.93;;;27.38;;
71814;SDS011;59659;41.520;23.794;2022-12-29T06:53:23;58.45;;;24.80;;
71814;SDS011;59659;41.520;23.794;2022-12-29T06:54:34;52.55;;;21.30;;
71814;SDS011;59659;41.520;23.794;2022-12-29T06:55:46;45.50;;;23.83;;
71814;SDS011;59659;41.520;23.794;2022-12-29T06:56:57;51.20;;;25.95;;
71814;SDS011;59659;41.520;23.794;2022-12-29T06:58:09;55.13;;;28.20;;
71814;SDS011;59659;41.520;23.794;2022-12-29T06:59:21;52.08;;;27.52;;
71814;SDS011;59659;41.520;23.794;2022-12-29T07:00:32;54.28;;;28.48;;
71814;SDS011;59659;41.520;23.794;2022-12-29T07:01:44;70.50;;;30.58;;
71814;SDS011;59659;41.520;23.794;2022-12-29T07:02:56;78.78;;;33.42;;
71814;SDS011;59659;41.520;23.794;2022-12-29T07:04:09;75.57;;;31.95;;
71814;SDS011;59659;41.520;23.794;2022-12-29T07:05:21;86.03;;;33.80;;
71814;SDS011;59659;41.520;23.794;2022-12-29T07:06:32;78.35;;;31.67;;
71814;SDS011;59659;41.520;23.794;2022-12-29T07:07:44;106.15;;;37.67;;
71814;SDS011;59659;41.520;23.794;2022-12-29T07:08:55;105.65;;;37.35;;
71814;SDS011;59659;41.520;23.794;2022-12-29T07:10:08;120.68;;;38.45;;
71814;SDS011;59659;41.520;23.794;2022-12-29T07:11:20;147.88;;;40.53;;
71814;SDS011;59659;41.520;23.794;2022-12-29T07:12:31;108.90;;;34.15;;
71814;SDS011;59659;41.520;23.794;2022-12-29T07:13:43;86.65;;;33.35;;
71814;SDS011;59659;41.520;23.794;2022-12-29T07:14:54;90.93;;;28.60;;
71814;SDS011;59659;41.520;23.794;2022-12-29T07:16:09;77.18;;;31.65;;
71814;SDS011;59659;41.520;23.794;2022-12-29T07:17:21;76.78;;;32.42;;
71814;SDS011;59659;41.520;23.794;2022-12-29T07:18:35;68.95;;;30.92;;
71814;SDS011;59659;41.520;23.794;2022-12-29T07:19:47;64.15;;;30.40;;
71814;SDS011;59659;41.520;23.794;2022-12-29T07:20:59;64.25;;;29.75;;
71814;SDS011;59659;41.520;23.794;2022-12-29T07:22:10;67.43;;;28.83;;
71814;SDS011;59659;41.520;23.794;2022-12-29T07:23:22;72.07;;;31.80;;
71814;SDS011;59659;41.520;23.794;2022-12-29T07:24:33;88.68;;;35.63;;
71814;SDS011;59659;41.520;23.794;2022-12-29T07:25:45;81.15;;;32.47;;
71814;SDS011;59659;41.520;23.794;2022-12-29T07:26:58;58.10;;;24.58;;
71814;SDS011;59659;41.520;23.794;2022-12-29T07:28:09;49.28;;;22.33;;
71814;SDS011;59659;41.520;23.794;2022-12-29T07:29:21;39.83;;;20.15;;
71814;SDS011;59659;41.520;23.794;2022-12-29T07:30:32;50.53;;;19.92;;
71814;SDS011;59659;41.520;23.794;2022-12-29T07:31:44;33.50;;;21.60;;
71814;SDS011;59659;41.520;23.794;2022-12-29T07:32:56;43.17;;;19.38;;
71814;SDS011;59659;41.520;23.794;2022-12-29T07:34:08;44.60;;;21.25;;
71814;SDS011;59659;41.520;23.794;2022-12-29T07:35:19;39.97;;;20.15;;
71814;SDS011;59659;41.520;23.794;2022-12-29T07:36:31;44.13;;;23.05;;
71814;SDS011;59659;41.520;23.794;2022-12-29T07:37:45;41.67;;;21.77;;
71814;SDS011;59659;41.520;23.794;2022-12-29T07:38:56;42.33;;;22.00;;
71814;SDS011;59659;41.520;23.794;2022-12-29T07:40:08;40.88;;;24.52;;
71814;SDS011;59659;41.520;23.794;2022-12-29T07:41:20;64.60;;;32.95;;
71814;SDS011;59659;41.520;23.794;2022-12-29T07:42:32;43.13;;;24.50;;
71814;SDS011;59659;41.520;23.794;2022-12-29T07:43:46;66.00;;;29.05;;
71814;SDS011;59659;41.520;23.794;2022-12-29T07:44:58;55.60;;;29.70;;
71814;SDS011;59659;41.520;23.794;2022-12-29T07:46:09;69.47;;;35.67;;
71814;SDS011;59659;41.520;23.794;2022-12-29T07:47:41;57.40;;;31.05;;
71814;SDS011;59659;41.520;23.794;2022-12-29T07:48:52;55.00;;;30.58;;
71814;SDS011;59659;41.520;23.794;2022-12-29T07:50:04;59.90;;;32.42;;
71814;SDS011;59659;41.520;23.794;2022-12-29T07:51:16;61.20;;;31.42;;
71814;SDS011;59659;41.520;23.794;2022-12-29T07:52:27;52.38;;;29.80;;
71814;SDS011;59659;41.520;23.794;2022-12-29T07:53:39;58.63;;;27.02;;
71814;SDS011;59659;41.520;23.794;2022-12-29T07:54:50;61.75;;;31.98;;
71814;SDS011;59659;41.520;23.794;2022-12-29T07:56:02;68.15;;;33.58;;
71814;SDS011;59659;41.520;23.794;2022-12-29T07:57:13;68.47;;;35.60;;
71814;SDS011;59659;41.520;23.794;2022-12-29T07:58:25;73.82;;;34.83;;
71814;SDS011;59659;41.520;23.794;2022-12-29T07:59:36;72.78;;;33.45;;
71814;SDS011;59659;41.520;23.794;2022-12-29T08:00:52;70.28;;;35.72;;
71814;SDS011;59659;41.520;23.794;2022-12-29T08:02:04;70.82;;;39.20;;
71814;SDS011;59659;41.520;23.794;2022-12-29T08:03:15;72.10;;;40.03;;
71814;SDS011;59659;41.520;23.794;2022-12-29T08:04:27;67.57;;;34.17;;
71814;SDS011;59659;41.520;23.794;2022-12-29T08:05:38;62.17;;;31.67;;
71814;SDS011;59659;41.520;23.794;2022-12-29T08:06:50;67.22;;;30.27;;
71814;SDS011;59659;41.520;23.794;2022-12-29T08:08:01;60.53;;;31.38;;
71814;SDS011;59659;41.520;23.794;2022-12-29T08:09:13;72.35;;;38.17;;
71814;SDS011;59659;41.520;23.794;2022-12-29T08:10:32;57.47;;;32.45;;
71814;SDS011;59659;41.520;23.794;2022-12-29T08:11:44;72.90;;;37.80;;
71814;SDS011;59659;41.520;23.794;2022-12-29T08:12:56;58.90;;;30.02;;
71814;SDS011;59659;41.520;23.794;2022-12-29T08:14:08;59.20;;;28.83;;
71814;SDS011;59659;41.520;23.794;2022-12-29T08:15:20;57.13;;;29.95;;
71814;SDS011;59659;41.520;23.794;2022-12-29T08:16:40;86.63;;;38.50;;
71814;SDS011;59659;41.520;23.794;2022-12-29T08:17:52;96.53;;;43.78;;
71814;SDS011;59659;41.520;23.794;2022-12-29T08:19:03;85.60;;;38.97;;
71814;SDS011;59659;41.520;23.794;2022-12-29T08:20:16;89.25;;;42.45;;
71814;SDS011;59659;41.520;23.794;2022-12-29T08:21:28;84.15;;;37.88;;
71814;SDS011;59659;41.520;23.794;2022-12-29T08:22:40;80.15;;;38.97;;
71814;SDS011;59659;41.520;23.794;2022-12-29T08:23:51;82.43;;;42.05;;
71814;SDS011;59659;41.520;23.794;2022-12-29T08:25:03;77.97;;;41.33;;
71814;SDS011;59659;41.520;23.794;2022-12-29T08:26:15;77.70;;;37.22;;
71814;SDS011;59659;41.520;23.794;2022-12-29T08:27:26;74.38;;;37.10;;
71814;SDS011;59659;41.520;23.794;2022-12-29T08:28:38;63.28;;;30.98;;
71814;SDS011;59659;41.520;23.794;2022-12-29T08:29:49;64.22;;;32.17;;
71814;SDS011;59659;41.520;23.794;2022-12-29T08:31:01;70.93;;;33.70;;
71814;SDS011;59659;41.520;23.794;2022-12-29T08:32:13;64.47;;;33.42;;
71814;SDS011;59659;41.520;23.794;2022-12-29T08:33:25;64.32;;;32.67;;
71814;SDS011;59659;41.520;23.794;2022-12-29T08:34:37;65.03;;;34.30;;
71814;SDS011;59659;41.520;23.794;2022-12-29T08:35:48;76.43;;;36.35;;
71814;SDS011;59659;41.520;23.794;2022-12-29T08:37:00;68.97;;;33.28;;
71814;SDS011;59659;41.520;23.794;2022-12-29T08:38:12;64.18;;;29.95;;
71814;SDS011;59659;41.520;23.794;2022-12-29T08:39:23;65.68;;;33.90;;
71814;SDS011;59659;41.520;23.794;2022-12-29T08:40:35;59.53;;;28.88;;
71814;SDS011;59659;41.520;23.794;2022-12-29T08:41:47;61.17;;;31.75;;
71814;SDS011;59659;41.520;23.794;2022-12-29T08:42:58;65.63;;;31.67;;
71814;SDS011;59659;41.520;23.794;2022-12-29T08:44:10;76.60;;;35.17;;
71814;SDS011;59659;41.520;23.794;2022-12-29T08:45:22;77.13;;;37.80;;
71814;SDS011;59659;41.520;23.794;2022-12-29T08:46:34;74.65;;;37.92;;
71814;SDS011;59659;41.520;23.794;2022-12-29T08:47:46;82.72;;;37.33;;
71814;SDS011;59659;41.520;23.794;2022-12-29T08:48:57;68.35;;;34.00;;
71814;SDS011;59659;41.520;23.794;2022-12-29T08:50:09;72.22;;;36.42;;
71814;SDS011;59659;41.520;23.794;2022-12-29T08:51:20;75.75;;;36.42;;
71814;SDS011;59659;41.520;23.794;2022-12-29T08:52:35;61.45;;;34.00;;
71814;SDS011;59659;41.520;23.794;2022-12-29T08:53:46;61.17;;;31.17;;
71814;SDS011;59659;41.520;23.794;2022-12-29T08:54:58;68.57;;;34.95;;
71814;SDS011;59659;41.520;23.794;2022-12-29T08:56:10;73.57;;;33.10;;
71814;SDS011;59659;41.520;23.794;2022-12-29T08:57:22;63.45;;;30.95;;
71814;SDS011;59659;41.520;23.794;2022-12-29T08:58:34;70.97;;;31.60;;
71814;SDS011;59659;41.520;23.794;2022-12-29T08:59:47;63.72;;;31.55;;
71814;SDS011;59659;41.520;23.794;2022-12-29T09:00:59;63.65;;;32.55;;
71814;SDS011;59659;41.520;23.794;2022-12-29T09:02:11;75.32;;;37.38;;
71814;SDS011;59659;41.520;23.794;2022-12-29T09:03:27;73.75;;;34.78;;
71814;SDS011;59659;41.520;23.794;2022-12-29T09:04:59;73.72;;;33.90;;
71814;SDS011;59659;41.520;23.794;2022-12-29T09:06:11;67.88;;;34.05;;
71814;SDS011;59659;41.520;23.794;2022-12-29T09:07:23;62.20;;;32.05;;
71814;SDS011;59659;41.520;23.794;2022-12-29T09:08:34;59.22;;;28.73;;
71814;SDS011;59659;41.520;23.794;2022-12-29T09:09:46;57.50;;;27.48;;
71814;SDS011;59659;41.520;23.794;2022-12-29T09:11:11;54.58;;;26.20;;
71814;SDS011;59659;41.520;23.794;2022-12-29T09:12:23;52.38;;;28.58;;
71814;SDS011;59659;41.520;23.794;2022-12-29T09:13:35;46.78;;;25.85;;
71814;SDS011;59659;41.520;23.794;2022-12-29T09:14:46;56.67;;;27.33;;
71814;SDS011;59659;41.520;23.794;2022-12-29T09:15:58;52.55;;;28.40;;
71814;SDS011;59659;41.520;23.794;2022-12-29T09:17:10;47.58;;;27.05;;
71814;SDS011;59659;41.520;23.794;2022-12-29T09:18:40;49.60;;;25.88;;
71814;SDS011;59659;41.520;23.794;2022-12-29T09:19:52;52.80;;;27.25;;
71814;SDS011;59659;41.520;23.794;2022-12-29T09:21:04;53.78;;;26.05;;
71814;SDS011;59659;41.520;23.794;2022-12-29T09:22:16;49.70;;;25.35;;
71814;SDS011;59659;41.520;23.794;2022-12-29T09:23:28;50.90;;;26.67;;
71814;SDS011;59659;41.520;23.794;2022-12-29T09:24:39;118.22;;;49.17;;
71814;SDS011;59659;41.520;23.794;2022-12-29T09:25:51;122.30;;;48.45;;
71814;SDS011;59659;41.520;23.794;2022-12-29T09:27:03;69.55;;;35.90;;
71814;SDS011;59659;41.520;23.794;2022-12-29T09:28:14;60.10;;;30.42;;
71814;SDS011;59659;41.520;23.794;2022-12-29T09:29:26;50.38;;;24.42;;
71814;SDS011;59659;41.520;23.794;2022-12-29T09:30:37;49.97;;;25.83;;
71814;SDS011;59659;41.520;23.794;2022-12-29T09:31:49;50.22;;;26.00;;
71814;SDS011;59659;41.520;23.794;2022-12-29T09:33:00;47.40;;;23.73;;
71814;SDS011;59659;41.520;23.794;2022-12-29T09:34:12;50.00;;;24.60;;
71814;SDS011;59659;41.520;23.794;2022-12-29T09:35:23;49.83;;;27.05;;
71814;SDS011;59659;41.520;23.794;2022-12-29T09:36:35;52.35;;;25.17;;
71814;SDS011;59659;41.520;23.794;2022-12-29T09:37:46;47.15;;;25.23;;
71814;SDS011;59659;41.520;23.794;2022-12-29T09:38:58;58.20;;;28.52;;
71814;SDS011;59659;41.520;23.794;2022-12-29T09:40:17;46.45;;;23.00;;
71814;SDS011;59659;41.520;23.794;2022-12-29T09:41:37;49.97;;;24.27;;
71814;SDS011;59659;41.520;23.794;2022-12-29T09:44:23;50.22;;;25.10;;
71814;SDS011;59659;41.520;23.794;2022-12-29T09:45:41;44.63;;;23.83;;
71814;SDS011;59659;41.520;23.794;2022-12-29T09:46:53;47.17;;;23.65;;
71814;SDS011;59659;41.520;23.794;2022-12-29T09:48:07;50.67;;;24.88;;
71814;SDS011;59659;41.520;23.794;2022-12-29T09:49:37;41.83;;;24.73;;
71814;SDS011;59659;41.520;23.794;2022-12-29T09:50:52;41.15;;;24.55;;
71814;SDS011;59659;41.520;23.794;2022-12-29T09:52:11;49.42;;;23.88;;
71814;SDS011;59659;41.520;23.794;2022-12-29T09:53:25;46.63;;;23.30;;
71814;SDS011;59659;41.520;23.794;2022-12-29T09:54:52;45.65;;;22.88;;
71814;SDS011;59659;41.520;23.794;2022-12-29T09:56:17;44.13;;;20.73;;
71814;SDS011;59659;41.520;23.794;2022-12-29T09:58:48;43.72;;;20.77;;
71814;SDS011;59659;41.520;23.794;2022-12-29T10:00:21;35.65;;;18.85;;
71814;SDS011;59659;41.520;23.794;2022-12-29T10:01:36;37.85;;;20.08;;
71814;SDS011;59659;41.520;23.794;2022-12-29T10:02:54;37.92;;;20.27;;
71814;SDS011;59659;41.520;23.794;2022-12-29T10:04:08;40.45;;;19.27;;
71814;SDS011;59659;41.520;23.794;2022-12-29T10:05:43;37.15;;;21.02;;
71814;SDS011;59659;41.520;23.794;2022-12-29T10:06:59;36.38;;;19.20;;
71814;SDS011;59659;41.520;23.794;2022-12-29T10:11:19;43.50;;;19.92;;
71814;SDS011;59659;41.520;23.794;2022-12-29T10:17:54;31.40;;;18.10;;
71814;SDS011;59659;41.520;23.794;2022-12-29T10:19:22;38.88;;;20.13;;
71814;SDS011;59659;41.520;23.794;2022-12-29T10:24:30;37.33;;;18.92;;
71814;SDS011;59659;41.520;23.794;2022-12-29T10:25:43;43.95;;;19.50;;
71814;SDS011;59659;41.520;23.794;2022-12-29T10:26:54;29.65;;;16.90;;
71814;SDS011;59659;41.520;23.794;2022-12-29T10:28:15;43.58;;;20.25;;
71814;SDS011;59659;41.520;23.794;2022-12-29T10:29:32;38.53;;;20.08;;
71814;SDS011;59659;41.520;23.794;2022-12-29T10:30:45;44.42;;;22.02;;
71814;SDS011;59659;41.520;23.794;2022-12-29T10:31:59;35.10;;;18.85;;
71814;SDS011;59659;41.520;23.794;2022-12-29T10:33:12;36.25;;;17.95;;
71814;SDS011;59659;41.520;23.794;2022-12-29T10:34:30;39.47;;;18.13;;
71814;SDS011;59659;41.520;23.794;2022-12-29T10:35:44;42.88;;;20.38;;
71814;SDS011;59659;41.520;23.794;2022-12-29T10:36:58;37.80;;;22.27;;
71814;SDS011;59659;41.520;23.794;2022-12-29T10:39:49;42.15;;;20.50;;
71814;SDS011;59659;41.520;23.794;2022-12-29T10:41:21;40.15;;;20.58;;
71814;SDS011;59659;41.520;23.794;2022-12-29T10:42:36;39.90;;;20.08;;
71814;SDS011;59659;41.520;23.794;2022-12-29T10:43:49;38.88;;;19.08;;
71814;SDS011;59659;41.520;23.794;2022-12-29T10:45:01;32.22;;;18.15;;
71814;SDS011;59659;41.520;23.794;2022-12-29T10:46:17;38.20;;;19.77;;
71814;SDS011;59659;41.520;23.794;2022-12-29T10:47:31;44.17;;;23.33;;
71814;SDS011;59659;41.520;23.794;2022-12-29T10:48:45;50.97;;;24.98;;
71814;SDS011;59659;41.520;23.794;2022-12-29T10:49:57;44.53;;;23.30;;
71814;SDS011;59659;41.520;23.794;2022-12-29T10:51:09;42.67;;;21.45;;
71814;SDS011;59659;41.520;23.794;2022-12-29T10:52:21;49.22;;;25.65;;
71814;SDS011;59659;41.520;23.794;2022-12-29T10:56:27;47.20;;;23.42;;
71814;SDS011;59659;41.520;23.794;2022-12-29T10:57:40;49.17;;;25.67;;
71814;SDS011;59659;41.520;23.794;2022-12-29T10:58:55;54.25;;;25.73;;
71814;SDS011;59659;41.520;23.794;2022-12-29T11:00:15;48.72;;;24.67;;
71814;SDS011;59659;41.520;23.794;2022-12-29T11:01:30;41.95;;;21.92;;
71814;SDS011;59659;41.520;23.794;2022-12-29T11:02:50;47.70;;;23.67;;
71814;SDS011;59659;41.520;23.794;2022-12-29T11:04:07;42.58;;;21.13;;
71814;SDS011;59659;41.520;23.794;2022-12-29T11:06:33;44.53;;;21.92;;
71814;SDS011;59659;41.520;23.794;2022-12-29T11:07:46;51.35;;;24.90;;
71814;SDS011;59659;41.520;23.794;2022-12-29T11:09:01;46.10;;;25.55;;
71814;SDS011;59659;41.520;23.794;2022-12-29T11:10:20;40.33;;;20.00;;
71814;SDS011;59659;41.520;23.794;2022-12-29T11:11:34;44.65;;;23.83;;
71814;SDS011;59659;41.520;23.794;2022-12-29T11:12:57;38.58;;;23.80;;
71814;SDS011;59659;41.520;23.794;2022-12-29T11:14:28;54.72;;;24.23;;
71814;SDS011;59659;41.520;23.794;2022-12-29T11:15:42;48.22;;;22.15;;
71814;SDS011;59659;41.520;23.794;2022-12-29T11:17:00;55.00;;;24.73;;
71814;SDS011;59659;41.520;23.794;2022-12-29T11:19:33;40.67;;;22.17;;
71814;SDS011;59659;41.520;23.794;2022-12-29T11:20:54;43.63;;;22.23;;
71814;SDS011;59659;41.520;23.794;2022-12-29T11:22:23;38.83;;;20.52;;
71814;SDS011;59659;41.520;23.794;2022-12-29T11:23:41;45.60;;;21.77;;
71814;SDS011;59659;41.520;23.794;2022-12-29T11:24:53;44.40;;;21.60;;
71814;SDS011;59659;41.520;23.794;2022-12-29T11:27:21;45.90;;;24.33;;
71814;SDS011;59659;41.520;23.794;2022-12-29T11:28:34;49.88;;;22.92;;
71814;SDS011;59659;41.520;23.794;2022-12-29T11:29:45;47.67;;;22.70;;
71814;SDS011;59659;41.520;23.794;2022-12-29T11:31:00;33.40;;;17.25;;
71814;SDS011;59659;41.520;23.794;2022-12-29T11:32:20;38.90;;;18.65;;
71814;SDS011;59659;41.520;23.794;2022-12-29T11:33:38;32.58;;;17.10;;
71814;SDS011;59659;41.520;23.794;2022-12-29T11:34:50;27.58;;;16.73;;
71814;SDS011;59659;41.520;23.794;2022-12-29T11:36:04;39.35;;;18.90;;
71814;SDS011;59659;41.520;23.794;2022-12-29T11:38:36;44.30;;;18.52;;
71814;SDS011;59659;41.520;23.794;2022-12-29T11:41:03;40.50;;;18.83;;
71814;SDS011;59659;41.520;23.794;2022-12-29T11:42:17;34.83;;;17.98;;
71814;SDS011;59659;41.520;23.794;2022-12-29T11:43:31;32.42;;;17.65;;
71814;SDS011;59659;41.520;23.794;2022-12-29T11:44:46;34.33;;;15.48;;
71814;SDS011;59659;41.520;23.794;2022-12-29T11:45:58;30.80;;;16.58;;
71814;SDS011;59659;41.520;23.794;2022-12-29T11:47:12;36.05;;;17.48;;
71814;SDS011;59659;41.520;23.794;2022-12-29T11:48:24;31.88;;;15.48;;
71814;SDS011;59659;41.520;23.794;2022-12-29T11:49:39;30.35;;;15.07;;
71814;SDS011;59659;41.520;23.794;2022-12-29T11:50:54;36.42;;;16.17;;
71814;SDS011;59659;41.520;23.794;2022-12-29T11:52:06;27.85;;;15.15;;
71814;SDS011;59659;41.520;23.794;2022-12-29T11:53:22;31.63;;;15.82;;
71814;SDS011;59659;41.520;23.794;2022-12-29T11:54:36;32.92;;;17.08;;
71814;SDS011;59659;41.520;23.794;2022-12-29T11:57:36;46.55;;;22.13;;
71814;SDS011;59659;41.520;23.794;2022-12-29T11:58:47;38.53;;;16.88;;
71814;SDS011;59659;41.520;23.794;2022-12-29T12:00:03;41.55;;;19.73;;
71814;SDS011;59659;41.520;23.794;2022-12-29T12:02:35;48.90;;;20.92;;
71814;SDS011;59659;41.520;23.794;2022-12-29T12:04:12;44.80;;;18.77;;
71814;SDS011;59659;41.520;23.794;2022-12-29T12:05:39;44.03;;;19.23;;
71814;SDS011;59659;41.520;23.794;2022-12-29T12:06:58;30.50;;;16.52;;
71814;SDS011;59659;41.520;23.794;2022-12-29T12:08:17;34.55;;;16.30;;
71814;SDS011;59659;41.520;23.794;2022-12-29T12:09:32;35.10;;;17.77;;
71814;SDS011;59659;41.520;23.794;2022-12-29T12:11:58;31.55;;;15.27;;
71814;SDS011;59659;41.520;23.794;2022-12-29T12:16:15;43.70;;;19.67;;
71814;SDS011;59659;41.520;23.794;2022-12-29T12:17:40;42.85;;;21.42;;
71814;SDS011;59659;41.520;23.794;2022-12-29T12:20:18;46.70;;;24.20;;
71814;SDS011;59659;41.520;23.794;2022-12-29T12:21:40;53.40;;;24.58;;